EmailTwitter


Observations de surface / France / LFMP (07747)

Régions: Québec | Canada | États-Unis | Europe | France | UK | Elsewhere
Station
Affichage
Infos & localisation pour LFMP (07747) | Aide pour décoder les METARs

Observations prises le 2017-06-29 à 05H00 UTC à PERPIGNAN/RIVESA, FR (LFMP)

Température: 18.0 Celsius

Point de rosée: 9.0 Celsius

Humidité relative: 56%

Vents: Nord-ouest à 33 km/h ou 18 noeuds.

Rafale du vent: 56 km/h ou 30 noeuds.

Pression au niveau moyen de la mer: 100.60 kilopascals.

Observation METAR:

LFMP 290500Z AUTO 30018G30KT CAVOK 18/09 Q1006 NOSIG=